sensor_id;sensor_type;location;lat;lon;timestamp;P1;durP1;ratioP1;P2;durP2;ratioP2
61112;SDS011;47184;57.998;56.184;2023-05-01T00:00:50;12.57;;;4.93;;
61112;SDS011;47184;57.998;56.184;2023-05-01T00:03:17;10.65;;;5.40;;
61112;SDS011;47184;57.998;56.184;2023-05-01T00:05:44;20.60;;;6.20;;
61112;SDS011;47184;57.998;56.184;2023-05-01T00:08:11;13.07;;;5.72;;
61112;SDS011;47184;57.998;56.184;2023-05-01T00:10:37;15.68;;;5.10;;
61112;SDS011;47184;57.998;56.184;2023-05-01T00:13:04;10.23;;;4.88;;
61112;SDS011;47184;57.998;56.184;2023-05-01T00:15:31;14.80;;;5.50;;
61112;SDS011;47184;57.998;56.184;2023-05-01T00:17:58;10.95;;;5.07;;
61112;SDS011;47184;57.998;56.184;2023-05-01T00:20:27;12.68;;;5.63;;
61112;SDS011;47184;57.998;56.184;2023-05-01T00:22:54;13.55;;;5.93;;
61112;SDS011;47184;57.998;56.184;2023-05-01T00:25:20;14.00;;;5.97;;
61112;SDS011;47184;57.998;56.184;2023-05-01T00:27:47;8.45;;;3.45;;
61112;SDS011;47184;57.998;56.184;2023-05-01T00:30:13;13.13;;;6.20;;
61112;SDS011;47184;57.998;56.184;2023-05-01T00:32:39;14.40;;;4.78;;
61112;SDS011;47184;57.998;56.184;2023-05-01T00:35:06;16.42;;;6.05;;
61112;SDS011;47184;57.998;56.184;2023-05-01T00:37:32;15.00;;;4.80;;
61112;SDS011;47184;57.998;56.184;2023-05-01T00:39:59;15.60;;;5.53;;
61112;SDS011;47184;57.998;56.184;2023-05-01T00:42:25;13.27;;;5.90;;
61112;SDS011;47184;57.998;56.184;2023-05-01T00:44:51;18.38;;;5.70;;
61112;SDS011;47184;57.998;56.184;2023-05-01T00:47:17;18.05;;;6.00;;
61112;SDS011;47184;57.998;56.184;2023-05-01T00:49:44;7.57;;;4.28;;
61112;SDS011;47184;57.998;56.184;2023-05-01T00:52:11;7.28;;;3.55;;
61112;SDS011;47184;57.998;56.184;2023-05-01T00:54:38;13.23;;;5.28;;
61112;SDS011;47184;57.998;56.184;2023-05-01T00:57:04;11.02;;;5.35;;
61112;SDS011;47184;57.998;56.184;2023-05-01T00:59:33;15.82;;;5.88;;
61112;SDS011;47184;57.998;56.184;2023-05-01T01:01:59;13.82;;;5.95;;
61112;SDS011;47184;57.998;56.184;2023-05-01T01:04:26;12.82;;;5.13;;
61112;SDS011;47184;57.998;56.184;2023-05-01T01:15:43;14.65;;;5.35;;
61112;SDS011;47184;57.998;56.184;2023-05-01T01:18:15;14.23;;;5.90;;
61112;SDS011;47184;57.998;56.184;2023-05-01T01:20:45;14.38;;;5.50;;
61112;SDS011;47184;57.998;56.184;2023-05-01T01:23:24;17.40;;;6.32;;
61112;SDS011;47184;57.998;56.184;2023-05-01T01:32:19;8.52;;;4.25;;
61112;SDS011;47184;57.998;56.184;2023-05-01T01:35:02;12.07;;;6.03;;
61112;SDS011;47184;57.998;56.184;2023-05-01T01:40:12;15.05;;;6.25;;
61112;SDS011;47184;57.998;56.184;2023-05-01T01:42:45;14.05;;;5.50;;
61112;SDS011;47184;57.998;56.184;2023-05-01T01:45:21;14.23;;;5.55;;
61112;SDS011;47184;57.998;56.184;2023-05-01T01:47:48;6.03;;;2.15;;
61112;SDS011;47184;57.998;56.184;2023-05-01T01:50:16;12.95;;;6.35;;
61112;SDS011;47184;57.998;56.184;2023-05-01T01:52:46;15.90;;;6.40;;
61112;SDS011;47184;57.998;56.184;2023-05-01T01:55:14;13.48;;;5.18;;
61112;SDS011;47184;57.998;56.184;2023-05-01T01:57:45;12.25;;;5.95;;
61112;SDS011;47184;57.998;56.184;2023-05-01T02:00:13;8.32;;;4.35;;
61112;SDS011;47184;57.998;56.184;2023-05-01T02:02:47;20.45;;;5.95;;
61112;SDS011;47184;57.998;56.184;2023-05-01T02:05:15;17.20;;;6.22;;
61112;SDS011;47184;57.998;56.184;2023-05-01T02:07:44;11.73;;;5.63;;
61112;SDS011;47184;57.998;56.184;2023-05-01T02:10:13;20.40;;;6.90;;
61112;SDS011;47184;57.998;56.184;2023-05-01T02:12:41;17.15;;;6.13;;
61112;SDS011;47184;57.998;56.184;2023-05-01T02:15:10;13.23;;;5.30;;
61112;SDS011;47184;57.998;56.184;2023-05-01T02:17:38;21.55;;;6.53;;
61112;SDS011;47184;57.998;56.184;2023-05-01T02:20:06;11.95;;;4.07;;
61112;SDS011;47184;57.998;56.184;2023-05-01T02:22:34;24.58;;;6.18;;
61112;SDS011;47184;57.998;56.184;2023-05-01T02:25:03;9.90;;;4.93;;
61112;SDS011;47184;57.998;56.184;2023-05-01T02:27:31;22.60;;;6.63;;
61112;SDS011;47184;57.998;56.184;2023-05-01T02:30:03;22.67;;;6.13;;
61112;SDS011;47184;57.998;56.184;2023-05-01T02:32:30;13.80;;;4.80;;
61112;SDS011;47184;57.998;56.184;2023-05-01T02:34:57;16.23;;;5.60;;
61112;SDS011;47184;57.998;56.184;2023-05-01T02:37:25;11.98;;;4.15;;
61112;SDS011;47184;57.998;56.184;2023-05-01T02:39:53;16.73;;;5.90;;
61112;SDS011;47184;57.998;56.184;2023-05-01T02:42:19;14.68;;;5.82;;
61112;SDS011;47184;57.998;56.184;2023-05-01T02:45:22;13.88;;;5.68;;
61112;SDS011;47184;57.998;56.184;2023-05-01T02:47:47;12.75;;;5.53;;
61112;SDS011;47184;57.998;56.184;2023-05-01T02:50:16;12.40;;;5.05;;
61112;SDS011;47184;57.998;56.184;2023-05-01T02:52:42;14.55;;;4.97;;
61112;SDS011;47184;57.998;56.184;2023-05-01T02:55:34;13.23;;;5.05;;
61112;SDS011;47184;57.998;56.184;2023-05-01T02:58:01;15.75;;;5.65;;
61112;SDS011;47184;57.998;56.184;2023-05-01T03:00:27;11.30;;;4.60;;
61112;SDS011;47184;57.998;56.184;2023-05-01T03:02:54;12.05;;;4.97;;
61112;SDS011;47184;57.998;56.184;2023-05-01T03:05:21;12.27;;;5.80;;
61112;SDS011;47184;57.998;56.184;2023-05-01T03:07:47;11.77;;;5.03;;
61112;SDS011;47184;57.998;56.184;2023-05-01T03:10:13;12.93;;;5.55;;
61112;SDS011;47184;57.998;56.184;2023-05-01T03:12:40;14.85;;;4.93;;
61112;SDS011;47184;57.998;56.184;2023-05-01T03:15:06;12.07;;;5.80;;
61112;SDS011;47184;57.998;56.184;2023-05-01T03:17:33;15.77;;;5.43;;
61112;SDS011;47184;57.998;56.184;2023-05-01T03:19:59;12.73;;;5.45;;
61112;SDS011;47184;57.998;56.184;2023-05-01T03:22:27;11.20;;;6.05;;
61112;SDS011;47184;57.998;56.184;2023-05-01T03:24:58;13.85;;;6.15;;
61112;SDS011;47184;57.998;56.184;2023-05-01T03:27:24;17.17;;;5.57;;
61112;SDS011;47184;57.998;56.184;2023-05-01T03:29:50;14.25;;;5.20;;
61112;SDS011;47184;57.998;56.184;2023-05-01T03:32:18;10.13;;;4.60;;
61112;SDS011;47184;57.998;56.184;2023-05-01T03:34:46;20.25;;;5.70;;
61112;SDS011;47184;57.998;56.184;2023-05-01T03:37:14;19.20;;;5.82;;
61112;SDS011;47184;57.998;56.184;2023-05-01T03:39:40;11.63;;;5.50;;
61112;SDS011;47184;57.998;56.184;2023-05-01T03:42:38;17.63;;;5.97;;
61112;SDS011;47184;57.998;56.184;2023-05-01T03:45:12;17.70;;;5.90;;
61112;SDS011;47184;57.998;56.184;2023-05-01T03:47:38;32.95;;;6.53;;
61112;SDS011;47184;57.998;56.184;2023-05-01T03:50:05;14.05;;;5.60;;
61112;SDS011;47184;57.998;56.184;2023-05-01T03:52:35;18.35;;;4.75;;
61112;SDS011;47184;57.998;56.184;2023-05-01T03:55:02;10.45;;;5.88;;
61112;SDS011;47184;57.998;56.184;2023-05-01T03:57:37;6.47;;;3.00;;
61112;SDS011;47184;57.998;56.184;2023-05-01T04:00:04;12.73;;;4.22;;
61112;SDS011;47184;57.998;56.184;2023-05-01T04:02:41;7.80;;;2.78;;
61112;SDS011;47184;57.998;56.184;2023-05-01T04:05:11;13.65;;;6.22;;
61112;SDS011;47184;57.998;56.184;2023-05-01T04:07:40;6.38;;;3.00;;
61112;SDS011;47184;57.998;56.184;2023-05-01T04:10:06;9.00;;;3.88;;
61112;SDS011;47184;57.998;56.184;2023-05-01T04:12:37;13.07;;;5.45;;
61112;SDS011;47184;57.998;56.184;2023-05-01T04:15:04;14.95;;;5.57;;
61112;SDS011;47184;57.998;56.184;2023-05-01T04:17:34;23.77;;;5.63;;
61112;SDS011;47184;57.998;56.184;2023-05-01T04:20:01;21.65;;;5.97;;
61112;SDS011;47184;57.998;56.184;2023-05-01T04:22:31;13.45;;;6.03;;
61112;SDS011;47184;57.998;56.184;2023-05-01T04:24:58;11.02;;;5.45;;
61112;SDS011;47184;57.998;56.184;2023-05-01T04:27:24;21.70;;;6.28;;
61112;SDS011;47184;57.998;56.184;2023-05-01T04:29:50;17.83;;;6.30;;
61112;SDS011;47184;57.998;56.184;2023-05-01T04:32:17;10.50;;;5.43;;
61112;SDS011;47184;57.998;56.184;2023-05-01T04:34:43;24.10;;;7.07;;
61112;SDS011;47184;57.998;56.184;2023-05-01T04:37:09;10.32;;;4.93;;
61112;SDS011;47184;57.998;56.184;2023-05-01T04:39:36;14.77;;;6.53;;
61112;SDS011;47184;57.998;56.184;2023-05-01T04:42:02;15.27;;;6.53;;
61112;SDS011;47184;57.998;56.184;2023-05-01T04:44:29;16.20;;;7.97;;
61112;SDS011;47184;57.998;56.184;2023-05-01T04:46:55;15.00;;;6.82;;
61112;SDS011;47184;57.998;56.184;2023-05-01T04:49:22;14.55;;;6.80;;
61112;SDS011;47184;57.998;56.184;2023-05-01T04:51:48;18.55;;;7.65;;
61112;SDS011;47184;57.998;56.184;2023-05-01T04:54:16;20.30;;;7.32;;
61112;SDS011;47184;57.998;56.184;2023-05-01T04:56:42;21.15;;;6.55;;
61112;SDS011;47184;57.998;56.184;2023-05-01T04:59:09;24.60;;;7.13;;
61112;SDS011;47184;57.998;56.184;2023-05-01T05:01:37;21.85;;;8.25;;
61112;SDS011;47184;57.998;56.184;2023-05-01T05:04:03;19.63;;;7.57;;
61112;SDS011;47184;57.998;56.184;2023-05-01T05:06:30;25.20;;;7.97;;
61112;SDS011;47184;57.998;56.184;2023-05-01T05:08:57;20.55;;;7.53;;
61112;SDS011;47184;57.998;56.184;2023-05-01T05:11:23;28.73;;;7.00;;
61112;SDS011;47184;57.998;56.184;2023-05-01T05:13:51;17.02;;;6.13;;
61112;SDS011;47184;57.998;56.184;2023-05-01T05:16:17;18.85;;;6.93;;
61112;SDS011;47184;57.998;56.184;2023-05-01T05:18:43;18.75;;;8.02;;
61112;SDS011;47184;57.998;56.184;2023-05-01T05:21:09;12.32;;;6.55;;
61112;SDS011;47184;57.998;56.184;2023-05-01T05:23:38;20.50;;;7.50;;
61112;SDS011;47184;57.998;56.184;2023-05-01T05:26:05;41.33;;;7.53;;
61112;SDS011;47184;57.998;56.184;2023-05-01T05:28:31;18.13;;;7.40;;
61112;SDS011;47184;57.998;56.184;2023-05-01T05:30:58;18.48;;;8.15;;
61112;SDS011;47184;57.998;56.184;2023-05-01T05:33:24;21.17;;;5.90;;
61112;SDS011;47184;57.998;56.184;2023-05-01T05:35:51;22.08;;;6.38;;
61112;SDS011;47184;57.998;56.184;2023-05-01T05:38:21;8.50;;;4.25;;
61112;SDS011;47184;57.998;56.184;2023-05-01T05:40:51;27.63;;;8.13;;
61112;SDS011;47184;57.998;56.184;2023-05-01T05:43:19;40.05;;;8.85;;
61112;SDS011;47184;57.998;56.184;2023-05-01T05:45:46;24.50;;;7.50;;
61112;SDS011;47184;57.998;56.184;2023-05-01T05:48:12;23.80;;;8.23;;
61112;SDS011;47184;57.998;56.184;2023-05-01T05:50:40;24.70;;;8.52;;
61112;SDS011;47184;57.998;56.184;2023-05-01T05:53:07;17.90;;;7.57;;
61112;SDS011;47184;57.998;56.184;2023-05-01T05:55:35;34.70;;;9.30;;
61112;SDS011;47184;57.998;56.184;2023-05-01T05:58:03;23.90;;;8.98;;
61112;SDS011;47184;57.998;56.184;2023-05-01T06:00:30;22.02;;;7.47;;
61112;SDS011;47184;57.998;56.184;2023-05-01T06:03:02;24.67;;;7.95;;
61112;SDS011;47184;57.998;56.184;2023-05-01T06:05:30;20.30;;;9.10;;
61112;SDS011;47184;57.998;56.184;2023-05-01T06:07:57;25.08;;;7.97;;
61112;SDS011;47184;57.998;56.184;2023-05-01T06:10:23;22.95;;;7.95;;
61112;SDS011;47184;57.998;56.184;2023-05-01T06:12:49;13.70;;;6.50;;
61112;SDS011;47184;57.998;56.184;2023-05-01T06:15:15;32.40;;;8.25;;
61112;SDS011;47184;57.998;56.184;2023-05-01T06:17:47;16.15;;;7.00;;
61112;SDS011;47184;57.998;56.184;2023-05-01T06:20:13;16.25;;;6.10;;
61112;SDS011;47184;57.998;56.184;2023-05-01T06:22:39;21.50;;;8.05;;
61112;SDS011;47184;57.998;56.184;2023-05-01T06:25:20;38.63;;;9.13;;
61112;SDS011;47184;57.998;56.184;2023-05-01T06:27:48;19.73;;;7.97;;
61112;SDS011;47184;57.998;56.184;2023-05-01T06:30:18;25.92;;;11.18;;
61112;SDS011;47184;57.998;56.184;2023-05-01T06:32:45;16.48;;;7.65;;
61112;SDS011;47184;57.998;56.184;2023-05-01T06:35:13;10.10;;;5.05;;
61112;SDS011;47184;57.998;56.184;2023-05-01T06:37:39;17.02;;;7.85;;
61112;SDS011;47184;57.998;56.184;2023-05-01T06:40:07;25.02;;;9.98;;
61112;SDS011;47184;57.998;56.184;2023-05-01T06:42:38;25.40;;;8.68;;
61112;SDS011;47184;57.998;56.184;2023-05-01T06:45:05;20.20;;;8.57;;
61112;SDS011;47184;57.998;56.184;2023-05-01T06:47:33;17.30;;;7.57;;
61112;SDS011;47184;57.998;56.184;2023-05-01T06:50:00;17.30;;;6.30;;
61112;SDS011;47184;57.998;56.184;2023-05-01T06:52:31;21.13;;;8.55;;
61112;SDS011;47184;57.998;56.184;2023-05-01T06:54:57;18.58;;;8.35;;
61112;SDS011;47184;57.998;56.184;2023-05-01T06:57:23;19.02;;;7.53;;
61112;SDS011;47184;57.998;56.184;2023-05-01T06:59:50;17.50;;;8.15;;
61112;SDS011;47184;57.998;56.184;2023-05-01T07:02:16;23.70;;;8.32;;
61112;SDS011;47184;57.998;56.184;2023-05-01T07:04:42;36.03;;;10.60;;
61112;SDS011;47184;57.998;56.184;2023-05-01T07:07:09;29.83;;;10.32;;
61112;SDS011;47184;57.998;56.184;2023-05-01T07:09:35;14.80;;;7.30;;
61112;SDS011;47184;57.998;56.184;2023-05-01T07:12:01;18.92;;;10.18;;
61112;SDS011;47184;57.998;56.184;2023-05-01T07:14:27;15.30;;;5.43;;
61112;SDS011;47184;57.998;56.184;2023-05-01T07:16:53;18.92;;;9.65;;
61112;SDS011;47184;57.998;56.184;2023-05-01T07:19:20;24.17;;;10.27;;
61112;SDS011;47184;57.998;56.184;2023-05-01T07:21:46;30.45;;;9.80;;
61112;SDS011;47184;57.998;56.184;2023-05-01T07:24:12;21.90;;;8.55;;
61112;SDS011;47184;57.998;56.184;2023-05-01T07:26:38;23.33;;;10.50;;
61112;SDS011;47184;57.998;56.184;2023-05-01T07:29:04;21.83;;;10.35;;
61112;SDS011;47184;57.998;56.184;2023-05-01T07:31:30;22.00;;;9.70;;
61112;SDS011;47184;57.998;56.184;2023-05-01T07:33:56;20.27;;;9.82;;
61112;SDS011;47184;57.998;56.184;2023-05-01T07:36:22;21.90;;;9.82;;
61112;SDS011;47184;57.998;56.184;2023-05-01T07:38:48;21.45;;;10.35;;
61112;SDS011;47184;57.998;56.184;2023-05-01T07:41:15;24.67;;;10.75;;
61112;SDS011;47184;57.998;56.184;2023-05-01T07:43:41;29.02;;;13.10;;
61112;SDS011;47184;57.998;56.184;2023-05-01T07:46:07;13.50;;;6.72;;
61112;SDS011;47184;57.998;56.184;2023-05-01T07:48:33;22.40;;;10.43;;
61112;SDS011;47184;57.998;56.184;2023-05-01T07:51:02;20.98;;;9.60;;
61112;SDS011;47184;57.998;56.184;2023-05-01T07:53:28;24.10;;;11.35;;
61112;SDS011;47184;57.998;56.184;2023-05-01T07:56:03;15.15;;;7.47;;
61112;SDS011;47184;57.998;56.184;2023-05-01T07:58:36;14.73;;;8.85;;
61112;SDS011;47184;57.998;56.184;2023-05-01T08:01:02;35.05;;;10.80;;
61112;SDS011;47184;57.998;56.184;2023-05-01T08:03:29;27.92;;;11.05;;
61112;SDS011;47184;57.998;56.184;2023-05-01T08:05:55;24.00;;;10.70;;
61112;SDS011;47184;57.998;56.184;2023-05-01T08:08:22;24.70;;;9.13;;
61112;SDS011;47184;57.998;56.184;2023-05-01T08:10:48;28.92;;;10.95;;
61112;SDS011;47184;57.998;56.184;2023-05-01T08:13:16;41.08;;;11.52;;
61112;SDS011;47184;57.998;56.184;2023-05-01T08:15:44;22.35;;;10.65;;
61112;SDS011;47184;57.998;56.184;2023-05-01T08:18:11;18.85;;;8.95;;
61112;SDS011;47184;57.998;56.184;2023-05-01T08:20:44;35.73;;;11.13;;
61112;SDS011;47184;57.998;56.184;2023-05-01T08:23:17;10.73;;;6.50;;
61112;SDS011;47184;57.998;56.184;2023-05-01T08:25:45;17.13;;;9.90;;
61112;SDS011;47184;57.998;56.184;2023-05-01T08:28:15;24.38;;;9.77;;
61112;SDS011;47184;57.998;56.184;2023-05-01T08:30:42;15.25;;;7.15;;
61112;SDS011;47184;57.998;56.184;2023-05-01T08:33:11;13.55;;;6.40;;
61112;SDS011;47184;57.998;56.184;2023-05-01T08:35:37;15.55;;;8.95;;
61112;SDS011;47184;57.998;56.184;2023-05-01T08:38:03;16.95;;;9.13;;
61112;SDS011;47184;57.998;56.184;2023-05-01T08:40:34;19.45;;;10.05;;
61112;SDS011;47184;57.998;56.184;2023-05-01T08:43:05;29.20;;;11.77;;
61112;SDS011;47184;57.998;56.184;2023-05-01T08:45:31;22.63;;;8.90;;
61112;SDS011;47184;57.998;56.184;2023-05-01T08:48:05;18.67;;;8.48;;
61112;SDS011;47184;57.998;56.184;2023-05-01T08:50:33;28.85;;;9.95;;
61112;SDS011;47184;57.998;56.184;2023-05-01T08:53:01;25.27;;;8.27;;
61112;SDS011;47184;57.998;56.184;2023-05-01T08:55:29;15.45;;;6.15;;
61112;SDS011;47184;57.998;56.184;2023-05-01T08:57:57;12.98;;;6.75;;
61112;SDS011;47184;57.998;56.184;2023-05-01T09:00:24;19.67;;;8.73;;
61112;SDS011;47184;57.998;56.184;2023-05-01T09:02:50;11.80;;;5.63;;
61112;SDS011;47184;57.998;56.184;2023-05-01T09:05:17;16.55;;;7.15;;
61112;SDS011;47184;57.998;56.184;2023-05-01T09:07:44;23.17;;;7.82;;
61112;SDS011;47184;57.998;56.184;2023-05-01T09:10:12;13.40;;;5.30;;
61112;SDS011;47184;57.998;56.184;2023-05-01T09:12:40;10.60;;;5.22;;
61112;SDS011;47184;57.998;56.184;2023-05-01T09:15:10;11.45;;;5.25;;
61112;SDS011;47184;57.998;56.184;2023-05-01T09:17:36;19.67;;;7.50;;
61112;SDS011;47184;57.998;56.184;2023-05-01T09:20:03;20.75;;;7.63;;
61112;SDS011;47184;57.998;56.184;2023-05-01T09:22:33;7.00;;;4.53;;
61112;SDS011;47184;57.998;56.184;2023-05-01T09:25:00;10.80;;;6.70;;
61112;SDS011;47184;57.998;56.184;2023-05-01T09:27:33;14.10;;;7.47;;
61112;SDS011;47184;57.998;56.184;2023-05-01T09:30:03;14.37;;;7.20;;
61112;SDS011;47184;57.998;56.184;2023-05-01T09:32:31;16.25;;;7.80;;
61112;SDS011;47184;57.998;56.184;2023-05-01T09:35:13;12.18;;;5.72;;
61112;SDS011;47184;57.998;56.184;2023-05-01T09:40:13;29.52;;;8.38;;
61112;SDS011;47184;57.998;56.184;2023-05-01T09:42:40;13.45;;;6.20;;
61112;SDS011;47184;57.998;56.184;2023-05-01T09:45:14;15.35;;;6.78;;
61112;SDS011;47184;57.998;56.184;2023-05-01T09:47:41;11.43;;;6.93;;
61112;SDS011;47184;57.998;56.184;2023-05-01T09:52:57;24.83;;;8.70;;
61112;SDS011;47184;57.998;56.184;2023-05-01T09:55:29;19.40;;;7.63;;
61112;SDS011;47184;57.998;56.184;2023-05-01T09:57:56;15.52;;;6.78;;
61112;SDS011;47184;57.998;56.184;2023-05-01T10:00:23;10.63;;;6.38;;
61112;SDS011;47184;57.998;56.184;2023-05-01T10:02:50;22.00;;;7.72;;
61112;SDS011;47184;57.998;56.184;2023-05-01T10:05:17;11.23;;;5.97;;
61112;SDS011;47184;57.998;56.184;2023-05-01T10:07:59;16.83;;;6.70;;
61112;SDS011;47184;57.998;56.184;2023-05-01T10:10:28;16.58;;;7.10;;
61112;SDS011;47184;57.998;56.184;2023-05-01T10:13:15;15.27;;;7.45;;
61112;SDS011;47184;57.998;56.184;2023-05-01T10:15:45;15.00;;;7.68;;
61112;SDS011;47184;57.998;56.184;2023-05-01T10:18:11;18.23;;;6.95;;
61112;SDS011;47184;57.998;56.184;2023-05-01T10:20:39;17.00;;;6.75;;
61112;SDS011;47184;57.998;56.184;2023-05-01T10:23:05;18.52;;;6.57;;
61112;SDS011;47184;57.998;56.184;2023-05-01T10:25:32;12.95;;;6.22;;
61112;SDS011;47184;57.998;56.184;2023-05-01T10:28:01;14.85;;;7.90;;
61112;SDS011;47184;57.998;56.184;2023-05-01T10:30:31;14.07;;;5.90;;
61112;SDS011;47184;57.998;56.184;2023-05-01T10:33:00;16.63;;;6.45;;
61112;SDS011;47184;57.998;56.184;2023-05-01T10:35:28;5.50;;;3.03;;
61112;SDS011;47184;57.998;56.184;2023-05-01T10:37:58;11.70;;;6.85;;
61112;SDS011;47184;57.998;56.184;2023-05-01T10:43:14;16.50;;;7.63;;
61112;SDS011;47184;57.998;56.184;2023-05-01T10:45:43;19.38;;;7.05;;
61112;SDS011;47184;57.998;56.184;2023-05-01T10:48:10;16.23;;;4.85;;
61112;SDS011;47184;57.998;56.184;2023-05-01T10:53:38;14.02;;;7.45;;
61112;SDS011;47184;57.998;56.184;2023-05-01T10:56:38;21.38;;;6.50;;
61112;SDS011;47184;57.998;56.184;2023-05-01T10:58:58;15.93;;;6.80;;
61112;SDS011;47184;57.998;56.184;2023-05-01T11:01:29;16.50;;;5.32;;
61112;SDS011;47184;57.998;56.184;2023-05-01T11:03:57;14.68;;;6.80;;
61112;SDS011;47184;57.998;56.184;2023-05-01T11:06:24;23.13;;;6.65;;
61112;SDS011;47184;57.998;56.184;2023-05-01T11:08:51;17.23;;;6.95;;
61112;SDS011;47184;57.998;56.184;2023-05-01T11:21:45;9.85;;;5.05;;
61112;SDS011;47184;57.998;56.184;2023-05-01T11:24:12;14.95;;;6.07;;
61112;SDS011;47184;57.998;56.184;2023-05-01T11:26:39;10.10;;;5.50;;
61112;SDS011;47184;57.998;56.184;2023-05-01T11:29:07;12.77;;;5.93;;
61112;SDS011;47184;57.998;56.184;2023-05-01T11:31:35;10.20;;;4.65;;
61112;SDS011;47184;57.998;56.184;2023-05-01T11:34:02;19.63;;;5.72;;
61112;SDS011;47184;57.998;56.184;2023-05-01T11:36:49;17.85;;;5.72;;
61112;SDS011;47184;57.998;56.184;2023-05-01T11:39:17;16.33;;;4.43;;
61112;SDS011;47184;57.998;56.184;2023-05-01T11:41:44;11.00;;;5.85;;
61112;SDS011;47184;57.998;56.184;2023-05-01T11:44:11;16.92;;;5.22;;
61112;SDS011;47184;57.998;56.184;2023-05-01T11:46:42;15.48;;;5.25;;
61112;SDS011;47184;57.998;56.184;2023-05-01T11:49:08;23.98;;;5.72;;
61112;SDS011;47184;57.998;56.184;2023-05-01T11:51:35;15.20;;;5.50;;
61112;SDS011;47184;57.998;56.184;2023-05-01T11:54:02;12.32;;;5.10;;
61112;SDS011;47184;57.998;56.184;2023-05-01T11:56:37;7.13;;;4.45;;
61112;SDS011;47184;57.998;56.184;2023-05-01T11:59:09;11.73;;;5.85;;
61112;SDS011;47184;57.998;56.184;2023-05-01T12:01:37;16.38;;;6.15;;
61112;SDS011;47184;57.998;56.184;2023-05-01T12:04:06;7.03;;;3.55;;
61112;SDS011;47184;57.998;56.184;2023-05-01T12:06:39;7.05;;;4.20;;
61112;SDS011;47184;57.998;56.184;2023-05-01T12:09:20;12.15;;;6.88;;
61112;SDS011;47184;57.998;56.184;2023-05-01T12:11:49;12.43;;;5.75;;
61112;SDS011;47184;57.998;56.184;2023-05-01T12:14:16;12.75;;;5.85;;
61112;SDS011;47184;57.998;56.184;2023-05-01T12:16:43;12.40;;;5.72;;
61112;SDS011;47184;57.998;56.184;2023-05-01T12:19:11;12.70;;;5.50;;
61112;SDS011;47184;57.998;56.184;2023-05-01T12:21:39;30.75;;;6.90;;
61112;SDS011;47184;57.998;56.184;2023-05-01T12:24:12;15.30;;;6.43;;
61112;SDS011;47184;57.998;56.184;2023-05-01T12:26:41;11.05;;;5.20;;
61112;SDS011;47184;57.998;56.184;2023-05-01T12:29:08;8.80;;;5.00;;
61112;SDS011;47184;57.998;56.184;2023-05-01T12:31:36;8.05;;;4.72;;
61112;SDS011;47184;57.998;56.184;2023-05-01T12:34:10;16.65;;;6.22;;
61112;SDS011;47184;57.998;56.184;2023-05-01T12:36:37;8.32;;;4.90;;
61112;SDS011;47184;57.998;56.184;2023-05-01T12:39:04;11.55;;;5.95;;
61112;SDS011;47184;57.998;56.184;2023-05-01T12:41:35;7.88;;;4.43;;
61112;SDS011;47184;57.998;56.184;2023-05-01T12:46:44;10.48;;;5.15;;
61112;SDS011;47184;57.998;56.184;2023-05-01T12:49:18;10.85;;;4.30;;
61112;SDS011;47184;57.998;56.184;2023-05-01T12:51:48;8.23;;;3.25;;
61112;SDS011;47184;57.998;56.184;2023-05-01T12:54:20;13.85;;;5.50;;
61112;SDS011;47184;57.998;56.184;2023-05-01T12:56:47;9.50;;;5.78;;
61112;SDS011;47184;57.998;56.184;2023-05-01T12:59:24;7.68;;;4.28;;
61112;SDS011;47184;57.998;56.184;2023-05-01T13:02:02;12.30;;;6.00;;
61112;SDS011;47184;57.998;56.184;2023-05-01T13:04:29;9.52;;;5.05;;
61112;SDS011;47184;57.998;56.184;2023-05-01T13:06:56;10.85;;;3.25;;
61112;SDS011;47184;57.998;56.184;2023-05-01T13:09:24;12.95;;;4.13;;
61112;SDS011;47184;57.998;56.184;2023-05-01T13:11:56;16.50;;;4.40;;
61112;SDS011;47184;57.998;56.184;2023-05-01T13:14:28;10.27;;;4.93;;
61112;SDS011;47184;57.998;56.184;2023-05-01T13:16:59;7.10;;;4.13;;
61112;SDS011;47184;57.998;56.184;2023-05-01T13:19:26;15.65;;;5.25;;
61112;SDS011;47184;57.998;56.184;2023-05-01T13:21:54;8.38;;;3.60;;
61112;SDS011;47184;57.998;56.184;2023-05-01T13:24:22;20.27;;;6.38;;
61112;SDS011;47184;57.998;56.184;2023-05-01T13:26:56;15.77;;;5.07;;
61112;SDS011;47184;57.998;56.184;2023-05-01T13:29:26;12.82;;;5.55;;
61112;SDS011;47184;57.998;56.184;2023-05-01T13:31:52;12.57;;;5.28;;
61112;SDS011;47184;57.998;56.184;2023-05-01T13:34:20;10.98;;;4.63;;
61112;SDS011;47184;57.998;56.184;2023-05-01T13:36:58;11.77;;;5.00;;
61112;SDS011;47184;57.998;56.184;2023-05-01T13:39:26;8.60;;;4.22;;
61112;SDS011;47184;57.998;56.184;2023-05-01T13:41:53;13.48;;;4.97;;
61112;SDS011;47184;57.998;56.184;2023-05-01T13:44:19;7.93;;;4.18;;
61112;SDS011;47184;57.998;56.184;2023-05-01T13:46:47;12.15;;;4.88;;
61112;SDS011;47184;57.998;56.184;2023-05-01T13:49:14;23.50;;;5.03;;
61112;SDS011;47184;57.998;56.184;2023-05-01T13:51:45;12.38;;;3.63;;
61112;SDS011;47184;57.998;56.184;2023-05-01T13:54:11;15.13;;;4.53;;
61112;SDS011;47184;57.998;56.184;2023-05-01T13:56:39;13.23;;;4.88;;
61112;SDS011;47184;57.998;56.184;2023-05-01T13:59:07;12.07;;;4.47;;
61112;SDS011;47184;57.998;56.184;2023-05-01T14:01:35;13.07;;;4.10;;
61112;SDS011;47184;57.998;56.184;2023-05-01T14:04:14;13.27;;;3.55;;
61112;SDS011;47184;57.998;56.184;2023-05-01T14:06:42;12.15;;;2.90;;
61112;SDS011;47184;57.998;56.184;2023-05-01T14:09:10;15.40;;;4.80;;
61112;SDS011;47184;57.998;56.184;2023-05-01T14:11:42;19.45;;;4.95;;
61112;SDS011;47184;57.998;56.184;2023-05-01T14:14:12;12.98;;;3.95;;
61112;SDS011;47184;57.998;56.184;2023-05-01T14:16:40;12.90;;;4.78;;
61112;SDS011;47184;57.998;56.184;2023-05-01T14:19:07;10.85;;;3.90;;
61112;SDS011;47184;57.998;56.184;2023-05-01T14:21:37;6.05;;;3.08;;
61112;SDS011;47184;57.998;56.184;2023-05-01T14:24:06;9.07;;;4.22;;
61112;SDS011;47184;57.998;56.184;2023-05-01T14:26:33;6.32;;;3.08;;
61112;SDS011;47184;57.998;56.184;2023-05-01T14:29:01;11.85;;;4.20;;
61112;SDS011;47184;57.998;56.184;2023-05-01T14:31:28;15.63;;;3.90;;
61112;SDS011;47184;57.998;56.184;2023-05-01T14:33:56;11.05;;;4.53;;
61112;SDS011;47184;57.998;56.184;2023-05-01T14:36:24;12.63;;;4.28;;
61112;SDS011;47184;57.998;56.184;2023-05-01T14:38:51;13.05;;;4.18;;
61112;SDS011;47184;57.998;56.184;2023-05-01T14:41:20;15.15;;;3.60;;
61112;SDS011;47184;57.998;56.184;2023-05-01T14:43:46;7.68;;;3.80;;
61112;SDS011;47184;57.998;56.184;2023-05-01T14:46:16;6.50;;;3.28;;
61112;SDS011;47184;57.998;56.184;2023-05-01T14:48:53;18.80;;;3.55;;
61112;SDS011;47184;57.998;56.184;2023-05-01T14:51:19;7.25;;;3.50;;
61112;SDS011;47184;57.998;56.184;2023-05-01T14:53:45;11.88;;;4.10;;
61112;SDS011;47184;57.998;56.184;2023-05-01T14:56:11;11.23;;;3.55;;
61112;SDS011;47184;57.998;56.184;2023-05-01T14:58:38;6.03;;;3.80;;
61112;SDS011;47184;57.998;56.184;2023-05-01T15:01:04;6.35;;;2.88;;
61112;SDS011;47184;57.998;56.184;2023-05-01T15:03:30;6.40;;;3.50;;
61112;SDS011;47184;57.998;56.184;2023-05-01T15:05:57;12.43;;;3.25;;
61112;SDS011;47184;57.998;56.184;2023-05-01T15:08:24;14.05;;;4.20;;
61112;SDS011;47184;57.998;56.184;2023-05-01T15:10:50;15.27;;;2.60;;
61112;SDS011;47184;57.998;56.184;2023-05-01T15:13:17;8.07;;;4.13;;